Latest Weather Observations for Noonamah

IDD60901

Issued at 11:21 pm CST Friday 26 August 2016 (issued every 10 minutes, with the page automatically refreshed every 10 minutes)

About weather observations | Map of Darwin area stations | Latest observations for Darwin area | Other Formats
Station Details ID: 014314 Name: NOONAMAH AIRSTRIP Lat: -12.61 Lon: 131.05 Height: 17.5 m
Data from the previous 72 hours. | See also: Recent months at Noonamah
Date/Time
CST
Temp
°C
App
Temp
°C
Dew
Point
°C
Rel
Hum
%
Delta-T
°C
Wind Press
QNH
hPa
Press
MSL
hPa
Rain since
9am
mm
Dir  Spd
km/h
Gust
km/h
Spd
kts
Gust
kts
26/11:00pm 25.4 28.3 18.1 64 4.6 CALM 0 4 0 2 1014.1 1014.0 0.0
26/10:30pm 26.0 29.0 18.4 63 4.8 CALM 0 0 0 0 1013.6 1013.5 0.0
26/10:00pm 26.0 28.5 18.2 62 4.9 SW 2 4 1 2 1013.3 1013.2 0.0
26/09:30pm 26.1 28.2 18.0 61 5.1 WSW 4 4 2 2 1013.1 1013.0 0.0
26/09:00pm 27.1 29.4 17.8 56 5.9 NNE 2 2 1 1 1012.7 1012.6 0.0
26/08:30pm 28.1 30.5 17.9 54 6.5 NNE 2 2 1 1 1012.3 1012.2 0.0
26/08:00pm 28.6 30.7 18.1 53 6.7 NE 4 7 2 4 1012.0 1011.9 0.0
26/07:30pm 29.3 31.0 18.1 51 7.2 NE 6 9 3 5 1011.6 1011.5 0.0
26/07:00pm 30.0 31.7 18.4 49 7.5 NNE 7 13 4 7 1011.2 1011.1 0.0
26/06:30pm 30.9 32.8 18.6 48 8.0 NE 6 11 3 6 1010.8 1010.7 0.0
26/06:00pm 31.5 32.1 18.5 46 8.4 NE 13 20 7 11 1010.6 1010.5 0.0
26/05:30pm 32.4 33.1 18.9 44 8.8 NE 13 19 7 10 1010.2 1010.1 0.0
26/05:00pm 32.8 33.4 18.6 43 9.2 NE 13 22 7 12 1009.8 1009.7 0.0
26/04:30pm 33.5 34.8 19.2 43 9.4 NE 11 17 6 9 1009.6 1009.5 0.0
26/04:00pm 33.3 34.6 19.4 44 9.2 NNE 11 19 6 10 1009.7 1009.6 0.0
26/03:30pm 33.2 34.3 18.9 42 9.4 NE 11 19 6 10 1009.8 1009.7 0.0
26/03:00pm 34.6 36.2 18.2 37 10.7 NE 7 20 4 11 1010.0 1009.9 0.0
26/02:30pm 35.1 34.8 16.4 32 11.9 ESE 13 20 7 11 1010.4 1010.3 0.0
26/02:00pm 34.0 34.2 16.8 35 11.0 ENE 11 24 6 13 1010.9 1010.8 0.0
26/01:30pm 34.1 34.4 17.8 38 10.5 ENE 13 26 7 14 1011.3 1011.2 0.0
26/01:00pm 32.7 32.2 16.9 38 10.0 NE 15 28 8 15 1011.9 1011.8 0.0
26/12:30pm 33.5 33.8 18.8 41 9.6 E 15 22 8 12 1012.3 1012.2 0.0
26/12:00pm 32.2 31.9 19.1 45 8.6 ESE 19 30 10 16 1012.8 1012.7 0.0
26/11:30am 32.0 32.1 19.9 48 8.0 ESE 19 28 10 15 1013.2 1013.1 0.0
26/11:00am 31.7 31.5 19.3 47 8.1 ESE 19 30 10 16 1013.5 1013.4 0.0
26/10:30am 30.2 29.9 19.6 53 6.9 E 20 33 11 18 1013.8 1013.7 0.0
26/10:00am 30.0 31.0 21.1 59 5.9 E 17 28 9 15 1013.9 1013.8 0.0
26/09:30am 28.7 29.5 21.7 66 4.7 E 20 32 11 17 1014.1 1014.0 0.0
26/09:00am 28.4 30.4 22.2 69 4.2 E 15 26 8 14 1014.0 1013.9 0.0
26/08:30am 27.2 28.5 21.7 72 3.7 ESE 17 26 9 14 1013.8 1013.7 0.0
26/08:00am 25.9 27.0 18.8 65 4.5 ESE 11 20 6 11 1013.7 1013.6 0.0
26/07:30am 24.5 24.6 15.4 57 5.5 SE 9 13 5 7 1013.3 1013.2 0.0
26/07:00am 24.6 23.7 13.8 51 6.3 SE 11 15 6 8 1012.8 1012.7 0.0
26/06:30am 25.3 23.6 12.5 45 7.4 SE 13 20 7 11 1012.3 1012.2 0.0
26/06:00am 26.0 24.1 11.7 41 8.2 SE 13 24 7 13 1011.9 1011.8 0.0
26/05:30am 24.8 24.0 13.0 47 6.8 SSE 9 15 5 8 1011.7 1011.6 0.0
26/05:00am 23.1 23.4 14.4 58 5.1 SSE 6 7 3 4 1011.4 1011.3 0.0
26/04:30am 22.9 24.1 16.0 65 4.2 SSE 4 6 2 3 1011.2 1011.1 0.0
26/04:00am 21.9 24.3 17.1 74 2.9 CALM 0 4 0 2 1011.2 1011.1 0.0
26/03:30am 21.9 24.2 16.8 73 3.1 CALM 0 0 0 0 1011.1 1011.0 0.0
26/03:00am 22.9 24.9 16.9 69 3.7 SSE 2 2 1 1 1011.1 1011.0 0.0
26/02:30am 22.8 25.2 17.0 70 3.6 CALM 0 2 0 1 1011.1 1011.0 0.0
26/02:00am 21.7 23.9 16.4 72 3.2 CALM 0 0 0 0 1011.1 1011.0 0.0
26/01:30am 21.3 22.4 16.5 74 2.9 WSW 6 7 3 4 1011.2 1011.1 0.0
26/01:00am 21.7 23.9 16.6 73 3.1 CALM 0 0 0 0 1011.4 1011.3 0.0
26/12:30am 22.2 24.2 16.9 72 3.2 ESE 2 6 1 3 1011.6 1011.5 0.0
26/12:00am 22.9 24.9 16.9 69 3.7 S 2 4 1 2 1011.7 1011.6 0.0
 
Date/Time
CST
Temp
°C
App
Temp
°C
Dew
Point
°C
Rel
Hum
%
Delta-T
°C
Wind Press
QNH
hPa
Press
MSL
hPa
Rain since
9am
mm
Dir  Spd
km/h
Gust
km/h
Spd
kts
Gust
kts
25/11:30pm 23.0 25.2 16.5 67 4.0 CALM 0 0 0 0 1011.4 1011.3 0.0
25/11:00pm 24.3 26.6 16.8 63 4.6 CALM 0 0 0 0 1011.4 1011.3 0.0
25/10:30pm 24.7 26.1 16.4 60 5.1 WNW 4 4 2 2 1011.2 1011.1 0.0
25/10:00pm 25.9 27.9 17.8 61 5.1 W 4 6 2 3 1011.2 1011.1 0.0
25/09:30pm 26.7 27.9 16.9 55 6.1 W 6 7 3 4 1011.0 1010.9 0.0
25/09:00pm 27.0 28.3 17.2 55 6.1 WNW 6 7 3 4 1010.4 1010.3 0.0
25/08:30pm 27.6 28.7 17.2 53 6.5 WNW 7 9 4 5 1010.1 1010.0 0.0
25/08:00pm 28.2 29.2 16.8 50 7.1 WNW 7 13 4 7 1009.9 1009.8 0.0
25/07:30pm 28.8 29.4 16.7 48 7.6 WNW 9 15 5 8 1009.5 1009.4 0.0
25/07:00pm 29.3 30.2 17.5 49 7.5 NNW 9 13 5 7 1009.1 1009.0 0.0
25/06:30pm 30.7 31.1 16.3 42 9.0 NNW 9 15 5 8 1008.6 1008.5 0.0
25/06:00pm 32.3 31.6 15.3 35 10.6 NW 13 19 7 10 1008.2 1008.1 0.0
25/05:30pm 33.4 32.5 14.9 32 11.5 NW 13 20 7 11 1007.8 1007.7 0.0
25/05:00pm 33.7 32.7 14.7 32 11.7 NW 13 20 7 11 1007.4 1007.3 0.0
25/04:30pm 34.5 33.6 14.9 31 12.2 NW 13 24 7 13 1007.4 1007.3 0.0
25/04:00pm 35.1 33.3 13.3 27 13.3 NW 15 22 8 12 1007.4 1007.3 0.0
25/03:30pm 36.0 35.0 12.3 24 14.3 NW 9 19 5 10 1007.4 1007.3 0.0
25/03:00pm 35.1 33.9 11.5 24 14.0 NW 9 17 5 9 1007.7 1007.6 0.0
25/02:30pm 35.6 33.3 10.6 22 14.7 W 13 24 7 13 1008.1 1008.0 0.0
25/02:00pm 35.5 33.6 10.5 22 14.6 NW 11 24 6 13 1008.4 1008.3 0.0
25/01:30pm 35.0 33.7 10.1 22 14.4 NW 7 15 4 8 1008.9 1008.8 0.0
25/01:00pm 34.5 32.8 9.7 22 14.3 WNW 9 17 5 9 1009.4 1009.3 0.0
25/12:30pm 34.2 33.0 9.4 22 14.2 NW 6 13 3 7 1009.9 1009.8 0.0
25/12:00pm 33.3 32.3 8.7 22 13.9 S 4 7 2 4 1010.4 1010.3 0.0
25/11:30am 33.2 31.7 8.6 22 13.8 E 6 9 3 5 1010.8 1010.7 0.0
25/11:00am 32.7 31.3 8.9 23 13.4 SE 6 11 3 6 1011.1 1011.0 0.0
25/10:30am 31.6 30.1 9.2 25 12.6 SSE 7 13 4 7 1011.4 1011.3 0.0
25/10:00am 30.4 29.4 10.9 30 11.2 SE 7 11 4 6 1011.7 1011.6 0.0
25/09:30am 29.3 28.9 12.3 35 9.9 S 6 11 3 6 1011.8 1011.7 0.0
25/09:00am 27.2 27.8 15.9 50 6.9 SW 7 13 4 7 1011.7 1011.6 0.0
25/08:30am 25.5 27.1 16.9 59 5.3 SSW 4 6 2 3 1011.5 1011.4 0.0
25/08:00am 24.6 26.6 17.8 66 4.3 WSW 4 6 2 3 1011.1 1011.0 0.0
25/07:30am 24.2 26.6 17.9 68 3.9 SSW 2 4 1 2 1010.7 1010.6 0.0
25/07:00am 23.9 25.4 17.6 68 3.9 SSW 6 13 3 7 1010.5 1010.4 0.0
25/06:30am 23.3 25.5 19.2 78 2.6 SSW 6 9 3 5 1010.1 1010.0 0.0
25/06:00am 22.8 25.6 19.6 82 2.1 SSE 4 6 2 3 1009.5 1009.4 0.0
25/05:30am 22.1 25.0 19.8 87 1.5 S 4 6 2 3 1009.5 1009.4 0.0
25/05:00am 20.9 23.7 19.6 92 0.8 S 4 9 2 5 1009.1 1009.0 0.0
25/04:30am 20.7 23.8 18.6 88 1.3 CALM 0 0 0 0 1008.6 1008.5 0.0
25/04:00am 21.5 24.9 19.4 88 1.3 CALM 0 0 0 0 1008.7 1008.6 0.0
25/03:30am 21.4 24.7 19.1 87 1.5 CALM 0 0 0 0 1008.8 1008.7 0.0
25/03:00am 21.9 25.4 19.6 87 1.5 CALM 0 0 0 0 1008.9 1008.8 0.0
25/02:30am 21.9 25.4 19.5 86 1.5 CALM 0 0 0 0 1009.1 1009.0 0.0
25/02:00am 22.7 26.4 20.0 85 1.7 CALM 0 0 0 0 1009.3 1009.2 0.0
25/01:30am 22.9 26.7 20.1 84 1.8 CALM 0 2 0 1 1009.6 1009.5 0.0
25/01:00am 23.1 26.0 19.9 82 2.1 W 4 4 2 2 1010.0 1009.9 0.0
25/12:30am 23.8 - 20.5 82 2.1 - - - - - 1010.2 1010.1 -
25/12:00am 24.3 27.6 20.8 81 2.3 W 4 6 2 3 1010.4 1010.3 0.0
 
Date/Time
CST
Temp
°C
App
Temp
°C
Dew
Point
°C
Rel
Hum
%
Delta-T
°C
Wind Press
QNH
hPa
Press
MSL
hPa
Rain since
9am
mm
Dir  Spd
km/h
Gust
km/h
Spd
kts
Gust
kts
24/11:30pm 24.7 28.0 20.8 79 2.6 W 4 6 2 3 1010.3 1010.2 0.0
24/11:00pm 25.1 28.3 20.6 76 2.9 W 4 6 2 3 1010.4 1010.3 0.0
24/10:30pm 25.5 28.1 20.5 74 3.3 W 7 11 4 6 1010.4 1010.3 0.0
24/10:00pm 25.9 28.5 20.5 72 3.5 W 7 9 4 5 1010.1 1010.0 0.0
24/09:30pm 26.4 28.9 20.3 69 4.0 W 7 11 4 6 1010.1 1010.0 0.0
24/09:00pm 26.6 29.3 20.7 70 3.9 W 7 11 4 6 1009.8 1009.7 0.0
24/08:30pm 27.0 29.5 20.3 66 4.4 WNW 7 13 4 7 1009.6 1009.5 0.0
24/08:00pm 27.5 29.0 19.8 63 5.0 WNW 11 19 6 10 1009.0 1008.9 0.0
24/07:30pm 28.1 29.3 19.1 58 5.8 WNW 11 20 6 11 1008.7 1008.6 0.0
24/07:00pm 28.8 29.5 18.9 55 6.4 WNW 13 19 7 10 1008.2 1008.1 0.0
24/06:30pm 29.8 29.3 17.9 48 7.6 WNW 17 24 9 13 1007.7 1007.6 0.0
24/06:00pm 31.1 31.0 17.8 45 8.5 WNW 15 24 8 13 1007.4 1007.3 0.0
24/05:30pm 32.1 31.6 17.9 42 9.1 WNW 17 24 9 13 1007.0 1006.9 0.0
24/05:00pm 32.8 32.7 17.8 40 9.7 NW 15 22 8 12 1006.7 1006.6 0.0
24/04:30pm 33.4 33.5 17.5 38 10.2 WNW 13 26 7 14 1006.5 1006.4 0.0
24/04:00pm 34.2 33.8 16.1 34 11.4 WNW 13 22 7 12 1006.5 1006.4 0.0
24/03:30pm 34.2 33.8 15.1 31 11.9 W 11 20 6 11 1006.5 1006.4 0.0
24/03:00pm 33.9 33.6 15.4 33 11.6 WNW 11 20 6 11 1006.9 1006.8 0.0
24/02:30pm 33.6 33.0 14.6 31 11.7 W 11 20 6 11 1007.3 1007.2 0.0
24/02:00pm 33.8 33.8 15.3 33 11.5 W 9 17 5 9 1007.7 1007.6 0.0
24/01:30pm 33.4 33.2 15.8 34 11.0 WNW 11 20 6 11 1008.2 1008.1 0.0
24/01:00pm 34.2 33.8 15.1 31 11.9 NW 11 20 6 11 1008.7 1008.6 0.0
24/12:30pm 32.6 32.4 14.7 34 11.0 W 9 20 5 11 1009.3 1009.2 0.0
24/12:00pm 32.4 32.8 15.4 36 10.6 WNW 7 19 4 10 1009.8 1009.7 0.0
24/11:30am 31.9 32.5 15.8 38 10.0 SW 7 17 4 9 1010.3 1010.2 0.0
24/11:00am 31.3 30.9 15.3 38 9.9 W 11 20 6 11 1010.9 1010.8 0.0
24/10:30am 30.6 30.0 14.7 38 9.7 WSW 11 19 6 10 1011.3 1011.2 0.0
24/10:00am 30.4 30.8 15.3 40 9.3 W 7 15 4 8 1011.5 1011.4 0.0
24/09:30am 29.1 31.1 19.1 54 6.5 NW 7 9 4 5 1011.6 1011.5 0.0
24/09:00am 27.4 30.2 20.5 66 4.5 NNW 6 9 3 5 1011.4 1011.3 0.0
24/08:30am 25.6 29.5 21.1 76 3.0 NW 2 6 1 3 1011.2 1011.1 0.0
24/08:00am 22.5 26.3 20.2 87 1.5 CALM 0 0 0 0 1010.9 1010.8 0.0
24/07:30am 21.1 24.4 19.2 89 1.2 CALM 0 0 0 0 1010.6 1010.5 0.0
24/07:00am 20.5 23.6 18.6 89 1.2 CALM 0 0 0 0 1010.4 1010.3 0.0
24/06:30am 20.7 23.7 18.5 87 1.4 CALM 0 0 0 0 1010.1 1010.0 0.0
24/06:00am 21.0 24.3 19.1 89 1.2 CALM 0 0 0 0 1009.8 1009.7 0.0
24/05:30am 21.1 24.8 19.9 93 0.8 CALM 0 0 0 0 1009.9 1009.8 0.0
24/05:00am 19.8 22.6 17.9 89 1.2 CALM 0 0 0 0 1009.6 1009.5 0.0
24/04:30am 19.9 22.6 17.7 87 1.4 CALM 0 0 0 0 1009.5 1009.4 0.0
24/04:00am 20.4 23.4 18.5 89 1.2 CALM 0 0 0 0 1009.4 1009.3 0.0
24/03:30am 20.2 23.1 18.3 89 1.2 CALM 0 0 0 0 1009.4 1009.3 0.0
24/03:00am 20.7 23.6 18.3 86 1.5 CALM 0 0 0 0 1009.3 1009.2 0.0
24/02:30am 21.2 24.4 18.8 86 1.5 CALM 0 0 0 0 1009.2 1009.1 0.0
24/02:00am 21.3 24.3 18.5 84 1.8 CALM 0 0 0 0 1009.4 1009.3 0.0
24/01:30am 22.4 25.7 19.9 86 1.6 WSW 2 4 1 2 1009.3 1009.2 0.0
24/01:00am 22.7 26.1 20.2 86 1.6 W 2 4 1 2 1009.5 1009.4 0.0
24/12:30am 22.9 25.8 19.9 83 1.9 W 4 4 2 2 1009.6 1009.5 0.0
24/12:00am 23.6 26.9 19.9 80 2.4 W 2 2 1 1 1009.7 1009.6 0.0
 
Date/Time
CST
Temp
°C
App
Temp
°C
Dew
Point
°C
Rel
Hum
%
Delta-T
°C
Wind Press
QNH
hPa
Press
MSL
hPa
Rain since
9am
mm
Dir  Spd
km/h
Gust
km/h
Spd
kts
Gust
kts
23/11:30pm 23.9 26.8 19.8 78 2.6 W 4 4 2 2 1009.7 1009.6 0.0

Latest Capital City Observations: Canberra | Sydney | Melbourne | Brisbane | Adelaide | Perth | Hobart | Darwin

Other Formats:

Comma delimited format used in spreadsheet applications
http://www.bom.gov.au/fwo/IDD60901/IDD60901.94105.axf

JavaScript Object Notation format (JSON) in row-major order
http://www.bom.gov.au/fwo/IDD60901/IDD60901.94105.json